createdAt,value
2018-04-28T00:01:49.908Z,96.40
2018-04-28T00:04:18.259Z,96.30
2018-04-28T00:06:47.306Z,97.00
2018-04-28T00:09:15.584Z,97.00
2018-04-28T00:11:44.116Z,97.00
2018-04-28T00:14:12.508Z,97.30
2018-04-28T00:16:52.284Z,97.50
2018-04-28T00:19:22.407Z,97.50
2018-04-28T00:22:05.548Z,97.60
2018-04-28T00:24:39.566Z,97.40
2018-04-28T00:27:26.133Z,97.30
2018-04-28T00:30:12.001Z,97.60
2018-04-28T00:32:41.039Z,96.50
2018-04-28T00:35:10.340Z,96.40
2018-04-28T00:37:57.208Z,95.80
2018-04-28T00:40:32.940Z,93.00
2018-04-28T00:43:02.648Z,93.00
2018-04-28T00:45:49.348Z,92.50
2018-04-28T00:51:37.082Z,91.90
2018-04-28T01:00:37.516Z,90.90
2018-04-28T01:03:07.421Z,91.00
2018-04-28T01:05:49.126Z,91.10
2018-04-28T01:08:33.668Z,91.00
2018-04-28T01:11:08.957Z,90.80
2018-04-28T01:13:43.897Z,90.80
2018-04-28T01:16:14.056Z,90.60
2018-04-28T01:18:46.720Z,90.90
2018-04-28T01:21:34.288Z,90.90
2018-04-28T01:24:28.963Z,91.10
2018-04-28T01:27:22.547Z,90.90
2018-04-28T01:39:28.429Z,91.10
2018-04-28T01:42:08.383Z,91.00
2018-04-28T01:45:03.224Z,91.10
2018-04-28T01:47:53.766Z,91.10
2018-04-28T01:50:22.046Z,91.10
2018-04-28T01:52:51.171Z,91.10
2018-04-28T01:55:32.555Z,91.60
2018-04-28T01:58:04.313Z,91.20
2018-04-28T02:00:56.690Z,91.20
2018-04-28T02:03:38.738Z,91.30
2018-04-28T02:09:06.000Z,91.50
2018-04-28T02:11:41.791Z,91.50
2018-04-28T02:17:24.702Z,91.60
2018-04-28T02:20:06.084Z,91.50
2018-04-28T02:22:59.898Z,91.50
2018-04-28T02:25:40.956Z,91.90
2018-04-28T02:28:23.894Z,91.50
2018-04-28T02:30:59.355Z,91.70
2018-04-28T02:33:28.391Z,91.70
2018-04-28T02:36:11.706Z,91.60
2018-04-28T02:38:42.871Z,91.70
2018-04-28T02:41:41.751Z,91.80
2018-04-28T02:44:21.962Z,91.80
2018-04-28T02:47:10.189Z,91.80
2018-04-28T02:49:45.115Z,91.80
2018-04-28T02:52:31.274Z,91.80
2018-04-28T02:58:15.154Z,92.00
2018-04-28T03:01:00.893Z,92.30
2018-04-28T03:03:30.842Z,92.30
2018-04-28T03:09:26.070Z,92.70
2018-04-28T03:12:04.768Z,92.80
2018-04-28T03:14:33.067Z,93.00
2018-04-28T03:17:24.098Z,93.00
2018-04-28T03:19:55.850Z,93.00
2018-04-28T03:22:25.978Z,93.20
2018-04-28T03:24:59.077Z,93.30
2018-04-28T03:31:01.366Z,93.60
2018-04-28T03:33:34.553Z,93.50
2018-04-28T03:36:05.396Z,93.70
2018-04-28T03:38:45.342Z,93.80
2018-04-28T03:41:25.502Z,94.00
2018-04-28T03:44:01.449Z,93.90
2018-04-28T03:46:37.509Z,93.90
2018-04-28T03:49:23.514Z,94.00
2018-04-28T03:54:59.078Z,94.00
2018-04-28T03:57:45.387Z,93.80
2018-04-28T04:00:31.568Z,93.70
2018-04-28T04:03:11.565Z,93.70
2018-04-28T04:05:52.742Z,93.80
2018-04-28T04:11:46.671Z,93.80
2018-04-28T04:21:20.222Z,93.90
2018-04-28T04:23:55.068Z,93.80
2018-04-28T04:30:11.025Z,93.80
2018-04-28T04:32:43.348Z,93.70
2018-04-28T04:38:45.461Z,93.60
2018-04-28T04:41:24.251Z,93.60
2018-04-28T04:47:31.206Z,93.40
2018-04-28T04:53:15.891Z,92.50
2018-04-28T04:56:08.135Z,89.50
2018-04-28T04:58:40.591Z,86.60
2018-04-28T05:04:30.243Z,81.60
2018-04-28T05:10:59.949Z,77.80
2018-04-28T05:13:36.696Z,76.60
2018-04-28T05:16:17.842Z,75.30
2018-04-28T05:25:40.017Z,72.60
2018-04-28T05:28:23.815Z,72.60
2018-04-28T05:37:34.172Z,78.80
2018-04-28T05:43:41.171Z,87.00
2018-04-28T05:46:30.609Z,87.50
2018-04-28T05:49:17.070Z,87.40
2018-04-28T05:55:21.514Z,86.80
2018-04-28T06:01:20.948Z,72.80
2018-04-28T06:07:22.550Z,63.70
2018-04-28T06:10:07.141Z,63.60
2018-04-28T06:12:48.449Z,60.60
2018-04-28T06:15:28.512Z,60.40
2018-04-28T06:21:13.296Z,58.50
2018-04-28T06:23:41.924Z,63.70
2018-04-28T06:26:10.392Z,64.10
2018-04-28T06:28:39.482Z,62.40
2018-04-28T06:31:07.980Z,62.30
2018-04-28T06:33:36.739Z,62.20
2018-04-28T06:36:06.227Z,74.30
2018-04-28T06:38:34.728Z,74.10
2018-04-28T06:41:03.208Z,75.00
2018-04-28T06:43:31.721Z,72.40
2018-04-28T06:46:00.166Z,70.20
2018-04-28T06:48:28.707Z,67.40
2018-04-28T06:50:57.868Z,70.40
2018-04-28T06:53:26.120Z,70.40
2018-04-28T06:55:54.420Z,73.20
2018-04-28T06:58:22.722Z,75.30
2018-04-28T07:00:51.902Z,74.30
2018-04-28T07:03:20.217Z,74.20
2018-04-28T07:05:48.543Z,76.20
2018-04-28T07:08:16.862Z,74.60
2018-04-28T07:10:46.113Z,70.40
2018-04-28T07:13:15.123Z,69.60
2018-04-28T07:15:43.548Z,69.50
2018-04-28T07:18:11.924Z,70.60
2018-04-28T07:20:40.193Z,71.10
2018-04-28T07:23:08.535Z,71.80
2018-04-28T07:25:37.647Z,71.40
2018-04-28T07:28:05.969Z,71.30
2018-04-28T07:30:34.227Z,68.90
2018-04-28T07:33:02.548Z,68.90
2018-04-28T07:35:30.842Z,69.90
2018-04-28T07:37:59.172Z,70.70
2018-04-28T07:40:27.455Z,71.40
2018-04-28T07:42:55.750Z,71.60
2018-04-28T07:45:24.071Z,73.70
2018-04-28T07:47:53.128Z,76.20
2018-04-28T07:50:21.444Z,76.00
2018-04-28T07:52:50.579Z,77.00
2018-04-28T07:55:18.944Z,76.90
2018-04-28T07:57:47.305Z,76.50
2018-04-28T08:00:16.408Z,77.60
2018-04-28T08:02:44.781Z,77.60
2018-04-28T08:05:17.528Z,77.40
2018-04-28T08:07:45.853Z,77.20
2018-04-28T08:10:14.939Z,76.80
2018-04-28T08:12:43.213Z,76.80
2018-04-28T08:15:12.265Z,76.90
2018-04-28T08:17:41.352Z,76.80
2018-04-28T08:20:09.672Z,77.50
2018-04-28T08:22:38.006Z,77.00
2018-04-28T08:25:06.319Z,76.80
2018-04-28T08:27:34.644Z,76.90
2018-04-28T08:30:03.612Z,76.50
2018-04-28T08:32:32.665Z,74.20
2018-04-28T08:35:00.998Z,74.20
2018-04-28T08:37:29.306Z,74.60
2018-04-28T08:39:57.605Z,76.10
2018-04-28T08:42:25.895Z,75.40
2018-04-28T08:44:54.250Z,75.90
2018-04-28T08:47:22.603Z,75.30
2018-04-28T08:49:50.991Z,75.00
2018-04-28T08:52:19.537Z,76.10
2018-04-28T08:54:47.828Z,76.50
2018-04-28T08:57:16.109Z,76.40
2018-04-28T09:00:02.167Z,75.40
2018-04-28T09:02:30.483Z,76.20
2018-04-28T09:04:59.040Z,76.20
2018-04-28T09:07:40.710Z,76.00
2018-04-28T09:10:09.121Z,76.00
2018-04-28T09:12:38.174Z,76.40
2018-04-28T09:15:06.456Z,76.30
2018-04-28T09:17:35.545Z,76.60
2018-04-28T09:20:03.864Z,76.60
2018-04-28T09:22:32.912Z,77.00
2018-04-28T09:25:01.196Z,77.00
2018-04-28T09:27:29.518Z,78.80
2018-04-28T09:29:58.561Z,78.10
2018-04-28T09:32:26.852Z,78.10
2018-04-28T09:34:55.144Z,76.30
2018-04-28T09:37:23.435Z,75.50
2018-04-28T09:39:52.527Z,76.90
2018-04-28T09:42:21.588Z,76.40
2018-04-28T09:44:49.867Z,76.20
2018-04-28T09:47:18.184Z,77.40
2018-04-28T09:49:47.307Z,77.20
2018-04-28T09:52:15.629Z,77.20
2018-04-28T09:54:43.958Z,77.20
2018-04-28T09:57:12.279Z,77.60
2018-04-28T09:59:40.686Z,77.80
2018-04-28T10:02:15.454Z,78.20
2018-04-28T10:04:43.811Z,77.90
2018-04-28T10:07:13.000Z,78.20
2018-04-28T10:09:42.314Z,78.20
2018-04-28T10:12:10.919Z,78.10
2018-04-28T10:14:39.243Z,76.70
2018-04-28T10:17:07.556Z,77.00
2018-04-28T10:19:35.929Z,77.30
2018-04-28T10:22:05.223Z,76.00
2018-04-28T10:24:34.268Z,75.60
2018-04-28T10:27:02.623Z,75.50
2018-04-28T10:29:30.946Z,75.10
2018-04-28T10:31:59.247Z,74.00
2018-04-28T10:34:28.316Z,72.40
2018-04-28T10:36:56.724Z,72.20
2018-04-28T10:39:25.901Z,74.50
2018-04-28T10:41:54.190Z,74.50
2018-04-28T10:44:22.540Z,74.80
2018-04-28T10:46:50.821Z,72.60
2018-04-28T10:49:19.112Z,72.30
2018-04-28T10:51:47.676Z,70.60
2018-04-28T10:54:17.595Z,70.70
2018-04-28T10:56:46.085Z,70.60
2018-04-28T10:59:14.527Z,71.80
2018-04-28T11:01:42.890Z,71.90
2018-04-28T11:04:11.351Z,73.20
2018-04-28T11:06:40.596Z,74.40
2018-04-28T11:09:08.909Z,74.50
2018-04-28T11:11:37.308Z,74.50
2018-04-28T11:14:06.376Z,75.60
2018-04-28T11:16:34.677Z,75.60
2018-04-28T11:19:02.998Z,75.50
2018-04-28T11:21:31.301Z,75.10
2018-04-28T11:23:59.592Z,74.90
2018-04-28T11:26:27.941Z,74.20
2018-04-28T11:28:56.218Z,73.60
2018-04-28T11:31:24.508Z,73.30
2018-04-28T11:33:52.850Z,72.90
2018-04-28T11:36:21.242Z,73.70
2018-04-28T11:38:49.544Z,74.00
2018-04-28T11:41:17.836Z,74.50
2018-04-28T11:43:46.164Z,73.50
2018-04-28T11:46:14.589Z,73.60
2018-04-28T11:48:42.959Z,74.20
2018-04-28T11:51:11.786Z,74.80
2018-04-28T11:53:40.243Z,74.60
2018-04-28T11:56:08.607Z,74.30
2018-04-28T11:58:36.931Z,74.50
2018-04-28T12:01:05.361Z,74.30
2018-04-28T12:03:33.647Z,74.90
2018-04-28T12:06:01.965Z,75.30
2018-04-28T12:08:31.793Z,75.30
2018-04-28T12:11:00.068Z,75.30
2018-04-28T12:13:28.363Z,75.60
2018-04-28T12:15:56.648Z,75.40
2018-04-28T12:18:25.567Z,74.60
2018-04-28T12:20:53.855Z,73.70
2018-04-28T12:23:22.152Z,73.80
2018-04-28T12:25:51.244Z,72.40
2018-04-28T12:28:20.287Z,70.90
2018-04-28T12:30:48.602Z,70.90
2018-04-28T12:33:16.953Z,71.00
2018-04-28T12:35:45.290Z,71.20
2018-04-28T12:38:13.540Z,71.70
2018-04-28T12:40:41.834Z,71.80
2018-04-28T12:43:10.912Z,72.50
2018-04-28T12:45:39.997Z,72.10
2018-04-28T12:48:08.270Z,72.00
2018-04-28T12:50:36.666Z,71.70
2018-04-28T12:53:05.768Z,70.50
2018-04-28T12:55:34.837Z,70.30
2018-04-28T12:58:03.224Z,70.20
2018-04-28T13:00:31.520Z,70.50
2018-04-28T13:03:00.705Z,70.70
2018-04-28T13:05:29.069Z,70.70
2018-04-28T13:07:57.442Z,71.90
2018-04-28T13:10:28.312Z,71.30
2018-04-28T13:18:13.626Z,68.40
2018-04-28T13:20:42.797Z,68.00
2018-04-28T13:23:11.146Z,68.00
2018-04-28T13:25:39.441Z,67.20
2018-04-28T13:28:10.315Z,67.50
2018-04-28T13:30:39.519Z,66.00
2018-04-28T13:33:08.052Z,65.90
2018-04-28T13:35:36.550Z,66.50
2018-04-28T13:38:05.028Z,67.00
2018-04-28T13:40:35.803Z,67.70
2018-04-28T13:43:04.902Z,66.30
2018-04-28T13:45:34.427Z,66.50
2018-04-28T13:48:03.539Z,66.50
2018-04-28T13:50:34.187Z,66.40
2018-04-28T13:53:02.511Z,65.20
2018-04-28T13:55:31.775Z,66.00
2018-04-28T13:58:00.108Z,65.90
2018-04-28T14:00:30.045Z,67.00
2018-04-28T14:02:58.412Z,68.00
2018-04-28T14:05:26.696Z,67.50
2018-04-28T14:07:55.198Z,68.30
2018-04-28T14:10:23.570Z,67.80
2018-04-28T14:12:51.847Z,67.90
2018-04-28T14:15:20.336Z,68.20
2018-04-28T14:17:48.702Z,68.20
2018-04-28T14:20:17.299Z,68.00
2018-04-28T14:22:45.608Z,69.00
2018-04-28T14:25:14.146Z,69.00
2018-04-28T14:27:42.468Z,69.60
2018-04-28T14:30:11.791Z,69.80
2018-04-28T14:32:40.828Z,69.20
2018-04-28T14:35:09.186Z,69.20
2018-04-28T14:37:37.609Z,69.80
2018-04-28T14:40:06.285Z,70.40
2018-04-28T14:42:45.493Z,70.90
2018-04-28T14:45:13.898Z,71.30
2018-04-28T14:47:42.313Z,70.90
2018-04-28T14:50:11.611Z,72.70
2018-04-28T14:52:40.145Z,72.50
2018-04-28T14:55:08.458Z,73.10
2018-04-28T14:57:36.764Z,72.80
2018-04-28T15:00:05.811Z,72.80
2018-04-28T15:02:34.116Z,72.80
2018-04-28T15:05:03.182Z,72.50
2018-04-28T15:07:31.619Z,72.50
2018-04-28T15:09:59.965Z,72.00
2018-04-28T15:12:28.324Z,71.70
2018-04-28T15:14:56.635Z,72.00
2018-04-28T15:17:25.763Z,72.30
2018-04-28T15:19:54.435Z,72.20
2018-04-28T15:22:22.748Z,72.90
2018-04-28T15:24:51.196Z,72.70
2018-04-28T15:27:19.546Z,72.40
2018-04-28T15:29:48.279Z,72.00
2018-04-28T15:32:16.675Z,72.20
2018-04-28T15:34:45.065Z,72.20
2018-04-28T15:37:14.167Z,72.40
2018-04-28T15:39:45.463Z,72.90
2018-04-28T15:42:13.765Z,72.70
2018-04-28T15:44:42.121Z,72.30
2018-04-28T15:47:10.456Z,72.20
2018-04-28T15:49:38.785Z,72.90
2018-04-28T15:52:07.129Z,74.10
2018-04-28T15:54:36.171Z,73.60
2018-04-28T15:57:04.452Z,73.50
2018-04-28T15:59:34.138Z,74.00
2018-04-28T16:02:02.433Z,74.30
2018-04-28T16:04:31.419Z,74.90
2018-04-28T16:06:59.915Z,75.20
2018-04-28T16:09:29.133Z,75.20
2018-04-28T16:11:57.555Z,75.50
2018-04-28T16:14:25.973Z,75.50
2018-04-28T16:16:54.353Z,76.00
2018-04-28T16:19:23.169Z,75.90
2018-04-28T16:21:51.702Z,75.70
2018-04-28T16:24:20.150Z,74.90
2018-04-28T16:35:01.357Z,74.00
2018-04-28T16:40:08.813Z,74.50
2018-04-28T16:42:37.532Z,74.80
2018-04-28T16:45:05.849Z,75.10
2018-04-28T16:47:34.547Z,75.80
2018-04-28T16:50:03.225Z,75.70
2018-04-28T16:52:32.884Z,77.10
2018-04-28T16:55:02.108Z,77.70
2018-04-28T16:57:30.723Z,77.60
2018-04-28T16:59:59.962Z,77.70
2018-04-28T17:02:29.291Z,77.90
2018-04-28T17:04:57.694Z,77.90
2018-04-28T17:07:26.128Z,77.80
2018-04-28T17:09:54.520Z,77.90
2018-04-28T17:12:22.904Z,77.80
2018-04-28T17:14:51.388Z,77.80
2018-04-28T17:17:37.480Z,77.80
2018-04-28T17:20:05.824Z,77.80
2018-04-28T17:22:34.212Z,77.80
2018-04-28T17:25:02.616Z,78.50
2018-04-28T17:27:31.185Z,77.90
2018-04-28T17:29:59.595Z,78.50
2018-04-28T17:32:28.634Z,78.90
2018-04-28T17:34:57.167Z,78.60
2018-04-28T17:37:25.768Z,78.70
2018-04-28T17:39:54.218Z,78.80
2018-04-28T17:42:23.201Z,79.10
2018-04-28T17:44:51.573Z,79.40
2018-04-28T17:47:20.006Z,79.00
2018-04-28T17:49:48.314Z,80.00
2018-04-28T17:52:17.375Z,79.20
2018-04-28T17:54:45.662Z,79.20
2018-04-28T17:57:13.973Z,80.00
2018-04-28T17:59:42.266Z,80.40
2018-04-28T18:02:10.586Z,80.80
2018-04-28T18:04:38.860Z,80.70
2018-04-28T18:07:07.195Z,81.10
2018-04-28T18:09:35.677Z,81.50
2018-04-28T18:12:03.993Z,81.80
2018-04-28T18:14:32.288Z,81.70
2018-04-28T18:17:00.871Z,81.90
2018-04-28T18:19:29.145Z,83.40
2018-04-28T18:21:57.468Z,82.40
2018-04-28T18:24:25.796Z,82.00
2018-04-28T18:26:54.100Z,82.10
2018-04-28T18:29:23.154Z,84.10
2018-04-28T18:31:51.460Z,84.00
2018-04-28T18:34:19.775Z,83.00
2018-04-28T18:36:48.089Z,83.70
2018-04-28T18:39:16.375Z,84.00
2018-04-28T18:41:44.678Z,83.20
2018-04-28T18:44:13.728Z,84.30
2018-04-28T18:46:42.020Z,84.10
2018-04-28T18:49:10.332Z,84.80
2018-04-28T18:51:39.630Z,85.30
2018-04-28T18:54:07.921Z,85.10
2018-04-28T18:56:37.645Z,86.10
2018-04-28T18:59:06.086Z,86.10
2018-04-28T19:01:34.398Z,85.30
2018-04-28T19:04:02.868Z,86.10
2018-04-28T19:06:31.187Z,85.60
2018-04-28T19:08:59.722Z,86.10
2018-04-28T19:11:28.778Z,86.90
2018-04-28T19:13:57.339Z,86.90
2018-04-28T19:16:25.634Z,87.10
2018-04-28T19:18:53.951Z,87.80
2018-04-28T19:21:23.071Z,88.00
2018-04-28T19:23:51.390Z,88.00
2018-04-28T19:26:19.773Z,88.40
2018-04-28T19:28:48.138Z,88.20
2018-04-28T19:31:16.606Z,88.90
2018-04-28T19:33:45.500Z,89.30
2018-04-28T19:36:13.949Z,89.10
2018-04-28T19:38:43.058Z,89.40
2018-04-28T19:41:11.472Z,89.40
2018-04-28T19:43:39.766Z,89.80
2018-04-28T19:46:08.111Z,90.40
2018-04-28T19:48:36.532Z,90.70
2018-04-28T19:51:04.767Z,90.70
2018-04-28T19:53:33.067Z,90.90
2018-04-28T19:56:01.376Z,90.90
2018-04-28T19:58:30.623Z,91.60
2018-04-28T20:00:58.937Z,91.60
2018-04-28T20:03:27.272Z,91.90
2018-04-28T20:05:55.594Z,91.80
2018-04-28T20:08:23.888Z,92.00
2018-04-28T20:10:53.225Z,91.90
2018-04-28T20:13:21.665Z,91.90
2018-04-28T20:15:50.554Z,92.00
2018-04-28T20:18:18.841Z,92.00
2018-04-28T20:20:47.956Z,92.50
2018-04-28T20:23:33.880Z,92.50
2018-04-28T20:26:02.222Z,92.50
2018-04-28T20:28:31.289Z,92.60
2018-04-28T20:31:00.364Z,92.20
2018-04-28T20:33:28.692Z,92.10
2018-04-28T20:35:57.058Z,92.70
2018-04-28T20:38:26.474Z,93.30
2018-04-28T20:40:55.661Z,92.40
2018-04-28T20:43:25.153Z,92.50
2018-04-28T20:45:54.464Z,92.30
2018-04-28T20:48:22.968Z,92.30
2018-04-28T20:50:51.736Z,92.20
2018-04-28T20:53:20.294Z,92.70
2018-04-28T20:55:48.895Z,92.80
2018-04-28T20:58:18.495Z,93.10
2018-04-28T21:00:47.052Z,93.10
2018-04-28T21:03:15.562Z,92.80
2018-04-28T21:05:44.249Z,93.00
2018-04-28T21:08:12.594Z,93.10
2018-04-28T21:10:40.951Z,93.10
2018-04-28T21:13:09.311Z,93.00
2018-04-28T21:15:38.535Z,93.30
2018-04-28T21:18:06.907Z,93.30
2018-04-28T21:20:35.233Z,93.30
2018-04-28T21:23:03.526Z,93.30
2018-04-28T21:25:32.602Z,93.20
2018-04-28T21:28:01.214Z,93.20
2018-04-28T21:30:29.635Z,93.20
2018-04-28T21:32:57.965Z,93.20
2018-04-28T21:35:27.017Z,93.20
2018-04-28T21:37:55.309Z,93.20
2018-04-28T21:40:23.739Z,93.40
2018-04-28T21:42:52.050Z,93.50
2018-04-28T21:45:20.382Z,93.40
2018-04-28T21:47:49.409Z,93.40
2018-04-28T21:50:17.704Z,93.50
2018-04-28T21:52:46.021Z,93.90
2018-04-28T21:55:15.096Z,93.90
2018-04-28T21:57:43.369Z,93.90
2018-04-28T22:00:11.713Z,93.90
2018-04-28T22:02:40.016Z,93.50
2018-04-28T22:05:08.322Z,93.10
2018-04-28T22:07:36.639Z,93.40
2018-04-28T22:10:04.959Z,93.00
2018-04-28T22:12:33.278Z,92.90
2018-04-28T22:15:01.582Z,93.10
2018-04-28T22:17:30.728Z,93.10
2018-04-28T22:19:59.107Z,93.70
2018-04-28T22:22:27.447Z,93.90
2018-04-28T22:24:55.764Z,94.10
2018-04-28T22:27:24.084Z,94.10
2018-04-28T22:29:52.353Z,94.10
2018-04-28T22:32:20.638Z,94.10
2018-04-28T22:34:48.958Z,94.10
2018-04-28T22:37:17.351Z,94.00
2018-04-28T22:39:45.622Z,94.20
2018-04-28T22:42:13.899Z,94.50
2018-04-28T22:47:16.571Z,94.30
2018-04-28T22:49:44.854Z,94.20
2018-04-28T22:52:13.231Z,94.00
2018-04-28T22:54:42.226Z,94.10
2018-04-28T22:57:10.496Z,93.80
2018-04-28T22:59:38.942Z,93.80
2018-04-28T23:02:07.419Z,93.80
2018-04-28T23:04:35.819Z,93.90
2018-04-28T23:07:04.114Z,94.00
2018-04-28T23:09:32.423Z,94.10
2018-04-28T23:12:00.732Z,94.10
2018-04-28T23:14:29.039Z,93.90
2018-04-28T23:16:58.360Z,93.80
2018-04-28T23:19:26.673Z,93.80
2018-04-28T23:21:55.735Z,93.90
2018-04-28T23:24:24.008Z,93.80
2018-04-28T23:26:52.331Z,94.00
2018-04-28T23:29:20.645Z,94.10
2018-04-28T23:31:48.957Z,94.20
2018-04-28T23:34:17.301Z,94.20
2018-04-28T23:36:45.819Z,93.90
2018-04-28T23:39:14.124Z,93.80
2018-04-28T23:41:42.447Z,93.40
2018-04-28T23:44:10.795Z,93.20
2018-04-28T23:46:39.072Z,93.10
2018-04-28T23:49:07.386Z,93.50
2018-04-28T23:51:35.659Z,93.30
2018-04-28T23:54:04.257Z,93.30
2018-04-28T23:56:34.064Z,93.70
2018-04-28T23:59:02.558Z,93.70
